Time;durP1;ratioP1;P1;durP2;ratioP2;P2;SDS_P1;SDS_P2;PMS_P1;PMS_P2;Temp;Humidity;BMP_temperature;BMP_pressure;BME280_temperature;BME280_humidity;BME280_pressure;Samples;Min_cycle;Max_cycle;Signal;HPM_P1;HPM_P2
2023/10/29 00:00:47;;;;;;;3.67;1.70;;;12.40;99.90;;;;;;5031475;28;20752;-63
2023/10/29 00:03:12;;;;;;;7.03;1.83;;;12.40;99.90;;;;;;5031489;28;20120;-63
2023/10/29 00:05:38;;;;;;;4.43;2.07;;;12.40;99.90;;;;;;5032651;28;20056;-63
2023/10/29 00:08:03;;;;;;;4.00;1.60;;;12.40;99.90;;;;;;5032638;28;20148;-63
2023/10/29 00:10:29;;;;;;;6.00;1.85;;;12.40;99.90;;;;;;5032723;28;20040;-63
2023/10/29 00:12:55;;;;;;;5.77;2.33;;;12.40;99.90;;;;;;5032893;28;20033;-63
2023/10/29 00:15:20;;;;;;;4.33;1.90;;;12.50;99.90;;;;;;5033103;28;20026;-63
2023/10/29 00:17:46;;;;;;;4.77;1.70;;;12.50;99.90;;;;;;5033068;28;20096;-63
2023/10/29 00:20:12;;;;;;;4.57;1.90;;;12.40;99.90;;;;;;5033185;28;20299;-63
2023/10/29 00:22:38;;;;;;;;;;;12.40;99.90;;;;;;5035029;28;20137;-64
2023/10/29 00:25:03;;;;;;;2.72;1.50;;;12.40;99.90;;;;;;5036109;28;19995;-62
2023/10/29 00:27:29;;;;;;;5.13;1.52;;;12.40;99.90;;;;;;5033160;28;20069;-64
2023/10/29 00:29:54;;;;;;;2.90;1.60;;;12.30;99.90;;;;;;5034993;28;20029;-65
2023/10/29 00:32:20;;;;;;;3.40;1.80;;;12.30;99.90;;;;;;5031583;28;20025;-65
2023/10/29 00:34:47;;;;;;;4.10;1.43;;;12.40;99.90;;;;;;5032931;28;20031;-65
2023/10/29 00:37:13;;;;;;;2.45;1.48;;;12.40;99.90;;;;;;5031342;28;20260;-66
2023/10/29 00:39:39;;;;;;;5.75;1.58;;;12.40;99.90;;;;;;5032372;28;20076;-65
2023/10/29 00:42:05;;;;;;;3.88;1.80;;;12.40;99.90;;;;;;5032352;28;20033;-65
2023/10/29 00:44:30;;;;;;;5.00;1.80;;;12.40;99.90;;;;;;5032130;28;20449;-66
2023/10/29 00:46:57;;;;;;;6.20;1.90;;;12.50;99.90;;;;;;5032301;28;20079;-65
2023/10/29 00:49:22;;;;;;;3.85;1.90;;;12.50;99.90;;;;;;5030878;28;20364;-65
2023/10/29 00:51:49;;;;;;;5.57;1.92;;;12.50;99.90;;;;;;5032346;28;20476;-65
2023/10/29 00:54:14;;;;;;;5.28;2.10;;;12.50;99.90;;;;;;5032247;28;20053;-65
2023/10/29 00:56:40;;;;;;;2.85;1.70;;;12.50;99.90;;;;;;5032014;28;20030;-65
2023/10/29 00:59:06;;;;;;;4.57;1.87;;;12.50;99.90;;;;;;5031808;28;20104;-65
2023/10/29 01:01:32;;;;;;;2.85;1.73;;;12.40;99.90;;;;;;5010384;28;20018;-65
2023/10/29 01:03:59;;;;;;;;;;;12.40;99.90;;;;;;5012756;28;20076;-66
2023/10/29 01:06:25;;;;;;;3.30;1.70;;;12.40;99.90;;;;;;5012317;28;19912;-66
2023/10/29 01:08:51;;;;;;;5.18;1.77;;;12.40;99.90;;;;;;5012626;28;20512;-66
2023/10/29 01:11:16;;;;;;;5.10;2.00;;;12.50;99.90;;;;;;5012359;28;20073;-66
2023/10/29 01:13:42;;;;;;;4.93;1.40;;;12.50;99.90;;;;;;5011956;28;20049;-66
2023/10/29 01:16:07;;;;;;;3.13;1.60;;;12.40;99.90;;;;;;5012580;28;20101;-66
2023/10/29 01:18:33;;;;;;;6.00;1.77;;;12.40;99.90;;;;;;5015802;28;20514;-66
2023/10/29 01:20:59;;;;;;;2.87;1.57;;;12.40;99.90;;;;;;5014513;28;20053;-66
2023/10/29 01:23:25;;;;;;;2.35;1.50;;;12.30;99.90;;;;;;5016356;28;20049;-65
2023/10/29 01:25:50;;;;;;;;;;;12.30;99.90;;;;;;5016146;28;20034;-66
2023/10/29 01:28:16;;;;;;;2.97;1.50;;;12.40;99.90;;;;;;5029785;28;19913;-65
2023/10/29 01:30:42;;;;;;;3.93;1.63;;;12.50;99.90;;;;;;5033980;28;20039;-66
2023/10/29 01:33:07;;;;;;;7.77;1.90;;;12.50;99.90;;;;;;5035272;28;20030;-66
2023/10/29 01:35:33;;;;;;;3.70;1.80;;;12.50;99.90;;;;;;5035538;28;20512;-66
2023/10/29 01:37:58;;;;;;;5.68;1.58;;;12.50;99.90;;;;;;5035127;28;20030;-65
2023/10/29 01:40:24;;;;;;;4.07;1.73;;;12.50;99.90;;;;;;5037206;28;20480;-65
2023/10/29 01:42:49;;;;;;;4.13;1.47;;;12.50;99.90;;;;;;5037726;28;20139;-65
2023/10/29 01:45:17;;;;;;;4.50;1.47;;;12.50;99.90;;;;;;5036479;28;20035;-65
2023/10/29 01:47:42;;;;;;;3.42;1.40;;;12.50;99.90;;;;;;5035579;28;20159;-66
2023/10/29 01:50:08;;;;;;;2.00;1.23;;;12.50;99.90;;;;;;5035458;28;20487;-66
2023/10/29 01:52:37;;;;;;;3.45;1.23;;;12.50;99.90;;;;;;5035763;28;20041;-65
2023/10/29 01:55:03;;;;;;;3.88;1.80;;;12.50;99.90;;;;;;5033623;28;20553;-66
2023/10/29 01:57:29;;;;;;;5.05;1.50;;;12.40;99.90;;;;;;5034897;28;20026;-66
2023/10/29 01:59:54;;;;;;;8.48;2.13;;;12.50;99.90;;;;;;5026237;28;20044;-65
2023/10/29 02:02:20;;;;;;;3.83;1.80;;;12.50;99.90;;;;;;5009721;28;20038;-65
2023/10/29 02:04:45;;;;;;;2.92;1.10;;;12.60;99.90;;;;;;5032826;28;20087;-65
2023/10/29 02:07:11;;;;;;;3.47;1.20;;;12.70;99.90;;;;;;5034356;28;20484;-66
2023/10/29 02:09:37;;;;;;;3.50;1.17;;;12.70;99.90;;;;;;5034869;28;20029;-65
2023/10/29 02:12:02;;;;;;;1.75;1.20;;;12.70;99.90;;;;;;5034885;28;20109;-66
2023/10/29 02:14:29;;;;;;;2.08;1.00;;;12.70;99.90;;;;;;5035370;28;20022;-65
2023/10/29 02:16:55;;;;;;;4.05;1.60;;;12.60;99.90;;;;;;5034535;28;20041;-65
2023/10/29 02:19:21;;;;;;;4.33;1.40;;;12.60;99.90;;;;;;5034626;28;20057;-65
2023/10/29 02:21:46;;;;;;;2.78;1.10;;;12.70;99.90;;;;;;5034528;28;20025;-65
2023/10/29 02:24:12;;;;;;;3.13;1.20;;;12.60;99.90;;;;;;5033476;28;20025;-65
2023/10/29 02:26:37;;;;;;;2.50;1.17;;;12.60;99.90;;;;;;5034095;28;20519;-65
2023/10/29 02:29:03;;;;;;;3.67;1.43;;;12.60;99.90;;;;;;5034707;28;20025;-66
2023/10/29 02:31:28;;;;;;;4.63;1.77;;;12.60;99.90;;;;;;5034580;28;20384;-65
2023/10/29 02:33:54;;;;;;;3.87;1.40;;;12.70;99.90;;;;;;5034565;28;20348;-65
2023/10/29 02:36:19;;;;;;;2.57;1.20;;;12.80;99.90;;;;;;5035143;28;20443;-65
2023/10/29 02:38:45;;;;;;;1.43;1.00;;;12.70;99.90;;;;;;5034664;28;20025;-65
2023/10/29 02:41:10;;;;;;;1.73;1.10;;;12.70;99.90;;;;;;5033451;28;20021;-65
2023/10/29 02:43:40;;;;;;;4.53;1.37;;;12.70;99.90;;;;;;5034604;28;20025;-64
2023/10/29 02:46:05;;;;;;;3.20;1.13;;;12.80;99.90;;;;;;5034356;28;20017;-65
2023/10/29 02:48:31;;;;;;;2.90;1.27;;;12.90;99.90;;;;;;5033604;28;20140;-65
2023/10/29 02:50:56;;;;;;;3.80;1.27;;;12.80;99.90;;;;;;5034837;28;20264;-65
2023/10/29 02:53:22;;;;;;;2.23;0.90;;;12.80;99.90;;;;;;5034648;28;20279;-65
2023/10/29 02:55:48;;;;;;;3.33;1.07;;;12.80;99.90;;;;;;5034194;28;20562;-65
2023/10/29 02:58:14;;;;;;;2.15;1.10;;;12.80;99.90;;;;;;5019514;28;20030;-65
2023/10/29 03:00:39;;;;;;;2.15;1.00;;;12.70;99.90;;;;;;5014361;28;20430;-66
2023/10/29 03:03:05;;;;;;;2.23;1.00;;;12.70;99.90;;;;;;5014123;28;20034;-66
2023/10/29 03:05:31;;;;;;;2.70;1.02;;;12.60;99.90;;;;;;5012553;28;20053;-65
2023/10/29 03:07:59;;;;;;;2.80;1.10;;;12.60;99.90;;;;;;5013669;28;20034;-66
2023/10/29 03:10:24;;;;;;;3.08;1.00;;;12.60;99.90;;;;;;5012366;28;20040;-65
2023/10/29 03:12:50;;;;;;;4.00;0.82;;;12.60;99.90;;;;;;5013970;28;20030;-67
2023/10/29 03:15:16;;;;;;;2.37;0.97;;;12.60;99.90;;;;;;5013451;28;20520;-66
2023/10/29 03:17:41;;;;;;;2.88;0.80;;;12.60;99.90;;;;;;5013665;28;20072;-65
2023/10/29 03:20:07;;;;;;;2.30;0.77;;;12.60;99.90;;;;;;5013787;28;20060;-66
2023/10/29 03:22:33;;;;;;;1.25;0.70;;;12.60;99.90;;;;;;5013527;28;20153;-66
2023/10/29 03:24:59;;;;;;;1.38;0.73;;;12.60;99.90;;;;;;5013670;28;20072;-66
2023/10/29 03:27:25;;;;;;;6.90;1.90;;;12.60;99.90;;;;;;5020762;28;20439;-66
2023/10/29 03:29:50;;;;;;;2.10;0.93;;;12.60;99.90;;;;;;5032915;28;20049;-66
2023/10/29 03:32:16;;;;;;;1.83;1.07;;;12.60;99.90;;;;;;5033219;28;20115;-66
2023/10/29 03:34:41;;;;;;;5.57;1.03;;;12.60;99.90;;;;;;5033130;28;20101;-65
2023/10/29 03:37:07;;;;;;;2.50;0.70;;;12.70;99.90;;;;;;5032910;28;20032;-65
2023/10/29 03:39:32;;;;;;;3.53;1.30;;;12.80;99.90;;;;;;5031394;28;20025;-65
2023/10/29 03:41:58;;;;;;;1.83;0.80;;;12.90;99.90;;;;;;5033491;28;20357;-65
2023/10/29 03:44:23;;;;;;;1.53;1.13;;;12.80;99.90;;;;;;5031655;28;20034;-65
2023/10/29 03:46:51;;;;;;;3.27;1.00;;;12.70;99.90;;;;;;5033251;28;20056;-65
2023/10/29 03:49:17;;;;;;;2.65;1.15;;;12.60;99.90;;;;;;5033305;28;20052;-65
2023/10/29 03:51:44;;;;;;;3.65;1.23;;;12.60;99.90;;;;;;5033024;28;20475;-65
2023/10/29 03:54:09;;;;;;;2.67;1.38;;;12.50;99.90;;;;;;5033494;28;20025;-65
2023/10/29 03:56:35;;;;;;;2.40;1.50;;;12.40;99.90;;;;;;5033304;28;20025;-65
2023/10/29 03:59:00;;;;;;;4.73;1.50;;;12.40;99.90;;;;;;5033065;28;20030;-66
2023/10/29 04:01:26;;;;;;;3.67;1.73;;;12.40;99.90;;;;;;5031613;28;20028;-66
2023/10/29 04:03:52;;;;;;;5.22;1.80;;;12.30;99.90;;;;;;5031737;28;20022;-66
2023/10/29 04:06:17;;;;;;;2.60;1.80;;;12.30;99.90;;;;;;5033025;28;20207;-65
2023/10/29 04:08:43;;;;;;;3.83;1.87;;;12.30;99.90;;;;;;5032694;28;20022;-65
2023/10/29 04:11:08;;;;;;;3.40;1.50;;;12.30;99.90;;;;;;5032612;28;20022;-66
2023/10/29 04:13:34;;;;;;;2.20;1.80;;;12.30;99.90;;;;;;5032407;28;20076;-65
2023/10/29 04:15:59;;;;;;;3.27;1.70;;;12.30;99.90;;;;;;5032904;28;20032;-65
2023/10/29 04:18:27;;;;;;;3.40;1.40;;;12.30;99.90;;;;;;5031040;28;20022;-66
2023/10/29 04:20:54;;;;;;;4.35;1.92;;;12.40;99.90;;;;;;5032605;28;20053;-66
2023/10/29 04:23:20;;;;;;;6.20;1.70;;;12.40;99.90;;;;;;5032594;28;20035;-67
2023/10/29 04:25:45;;;;;;;3.87;1.83;;;12.40;99.90;;;;;;5032444;28;20112;-66
2023/10/29 04:28:11;;;;;;;4.25;1.92;;;12.40;99.90;;;;;;5031918;28;20057;-66
2023/10/29 04:30:36;;;;;;;3.57;1.40;;;12.30;99.90;;;;;;5032490;28;20049;-66
2023/10/29 04:33:03;;;;;;;3.90;1.88;;;12.30;99.90;;;;;;5032716;28;20053;-66
2023/10/29 04:35:29;;;;;;;4.15;1.45;;;12.40;99.90;;;;;;5032827;28;20021;-66
2023/10/29 04:37:55;;;;;;;4.40;1.95;;;12.30;99.90;;;;;;5034604;28;20038;-66
2023/10/29 04:40:20;;;;;;;2.97;1.87;;;12.30;99.90;;;;;;5034181;28;20022;-64
2023/10/29 04:42:46;;;;;;;4.20;1.80;;;12.30;99.90;;;;;;5033550;28;20021;-65
2023/10/29 04:45:11;;;;;;;3.57;1.47;;;12.30;99.90;;;;;;5033916;28;20025;-65
2023/10/29 04:47:37;;;;;;;4.67;1.80;;;12.30;99.90;;;;;;5033866;28;20105;-65
2023/10/29 04:50:03;;;;;;;3.47;1.75;;;12.30;99.90;;;;;;5034482;28;20032;-66
2023/10/29 04:52:29;;;;;;;;;;;12.30;99.90;;;;;;5038156;28;20041;-66
2023/10/29 04:54:54;;;;;;;3.17;1.40;;;12.30;99.90;;;;;;5037496;28;19905;-64
2023/10/29 04:57:21;;;;;;;3.20;1.50;;;12.20;99.90;;;;;;5029275;28;20096;-65
2023/10/29 04:59:48;;;;;;;;;;;12.20;99.90;;;;;;5016523;28;20033;-66
2023/10/29 05:02:15;;;;;;;4.35;1.60;;;12.20;99.90;;;;;;5016141;28;20376;-65
2023/10/29 05:04:41;;;;;;;4.10;1.60;;;12.20;99.90;;;;;;5016208;28;20489;-65
2023/10/29 05:07:08;;;;;;;4.05;2.17;;;12.20;99.90;;;;;;5016045;28;20076;-65
2023/10/29 05:09:34;;;;;;;3.03;1.60;;;12.10;99.90;;;;;;5016283;28;20034;-65
2023/10/29 05:11:59;;;;;;;4.97;1.92;;;12.20;99.90;;;;;;5016343;28;20029;-66
2023/10/29 05:14:25;;;;;;;5.30;2.77;;;12.20;99.90;;;;;;5017659;28;20036;-65
2023/10/29 05:16:52;;;;;;;4.33;1.97;;;12.30;99.90;;;;;;5017650;28;20346;-65
2023/10/29 05:19:17;;;;;;;4.65;1.95;;;12.30;99.90;;;;;;5017432;28;20026;-65
2023/10/29 05:21:43;;;;;;;5.53;2.10;;;12.30;99.90;;;;;;5016720;28;20104;-66
2023/10/29 05:24:09;;;;;;;5.20;2.00;;;12.30;99.90;;;;;;5015717;28;20351;-65
2023/10/29 05:26:37;;;;;;;3.58;1.73;;;12.30;99.90;;;;;;5017617;28;20061;-65
2023/10/29 05:29:03;;;;;;;6.28;2.20;;;12.30;99.90;;;;;;5036347;28;20037;-66
2023/10/29 05:31:29;;;;;;;4.07;2.00;;;12.30;99.90;;;;;;5036811;28;20097;-65
2023/10/29 05:33:54;;;;;;;6.13;2.20;;;12.30;99.90;;;;;;5036101;28;20104;-65
2023/10/29 05:36:20;;;;;;;5.27;1.93;;;12.40;99.90;;;;;;5036292;28;20029;-65
2023/10/29 05:38:45;;;;;;;3.97;1.80;;;12.40;99.90;;;;;;5024705;28;20026;-65
2023/10/29 05:41:11;;;;;;;5.37;1.97;;;12.50;99.90;;;;;;5016363;28;20022;-66
2023/10/29 05:43:37;;;;;;;5.22;2.00;;;12.40;99.90;;;;;;5015680;28;20867;-66
2023/10/29 05:46:02;;;;;;;3.05;2.00;;;12.50;99.90;;;;;;5015704;28;20022;-65
2023/10/29 05:48:28;;;;;;;3.42;1.88;;;12.60;99.90;;;;;;5015374;28;20454;-65
2023/10/29 05:50:54;;;;;;;5.55;2.38;;;12.70;99.90;;;;;;5015130;28;20041;-66
2023/10/29 05:53:19;;;;;;;3.97;2.20;;;12.60;99.90;;;;;;5015352;28;20033;-69
2023/10/29 05:55:45;;;;;;;3.97;2.00;;;12.60;99.90;;;;;;5015255;28;20091;-66
2023/10/29 05:58:11;;;;;;;3.67;1.87;;;12.50;99.90;;;;;;5028792;28;20026;-66
2023/10/29 06:00:36;;;;;;;3.40;1.95;;;12.50;99.90;;;;;;5034547;28;20022;-65
2023/10/29 06:03:02;;;;;;;6.20;2.20;;;12.60;99.90;;;;;;5034488;28;20047;-66
2023/10/29 06:05:28;;;;;;;6.23;2.60;;;12.50;99.90;;;;;;5034756;28;20032;-65
2023/10/29 06:07:53;;;;;;;4.78;1.75;;;12.40;99.90;;;;;;5034608;28;20264;-65
2023/10/29 06:10:19;;;;;;;4.50;2.33;;;12.40;99.90;;;;;;5034476;28;20530;-65
2023/10/29 06:12:44;;;;;;;6.60;2.20;;;12.40;99.90;;;;;;5034593;28;20452;-65
2023/10/29 06:15:11;;;;;;;4.27;2.10;;;12.40;99.90;;;;;;5034059;28;20076;-65
2023/10/29 06:17:37;;;;;;;3.90;2.08;;;12.40;99.90;;;;;;5034296;28;20461;-65
2023/10/29 06:20:04;;;;;;;6.20;2.00;;;12.50;99.90;;;;;;5034113;28;20491;-65
2023/10/29 06:22:31;;;;;;;3.40;1.88;;;12.40;99.90;;;;;;5034216;28;20072;-64
2023/10/29 06:24:56;;;;;;;4.90;2.28;;;12.60;99.90;;;;;;5034448;28;20464;-65
2023/10/29 06:29:52;;;;;;;3.60;2.10;;;12.70;99.90;;;;;;5052455;28;20041;-65
2023/10/29 06:32:17;;;;;;;2.90;2.00;;;12.80;99.90;;;;;;5054103;28;20441;-66
2023/10/29 06:34:43;;;;;;;4.47;2.57;;;12.70;99.90;;;;;;5054839;28;20425;-66
2023/10/29 06:37:08;;;;;;;4.20;2.10;;;12.60;99.90;;;;;;5055255;28;20025;-65
2023/10/29 06:39:34;;;;;;;6.20;2.70;;;12.40;99.90;;;;;;5054405;28;20017;-66
2023/10/29 06:41:59;;;;;;;4.83;2.30;;;12.40;99.90;;;;;;5054269;28;20127;-66
2023/10/29 06:44:25;;;;;;;7.57;2.33;;;12.40;99.90;;;;;;5053334;28;20375;-66
2023/10/29 06:46:51;;;;;;;4.30;2.00;;;12.40;99.90;;;;;;5055051;28;20380;-65
2023/10/29 06:49:16;;;;;;;8.38;2.13;;;12.40;99.90;;;;;;5054964;28;20029;-66
2023/10/29 06:51:42;;;;;;;7.10;2.33;;;12.30;99.90;;;;;;5054342;28;20099;-66
2023/10/29 06:54:07;;;;;;;4.00;2.07;;;12.20;99.90;;;;;;5054859;28;20100;-65
2023/10/29 06:56:33;;;;;;;4.60;2.30;;;12.20;99.90;;;;;;5054443;28;20100;-65
2023/10/29 06:58:58;;;;;;;5.00;2.50;;;12.20;99.90;;;;;;5054315;28;20027;-65
2023/10/29 07:01:24;;;;;;;5.57;2.17;;;12.20;99.90;;;;;;5053340;28;20065;-66
2023/10/29 07:03:49;;;;;;;5.87;2.00;;;12.10;99.90;;;;;;5054880;28;20096;-66
2023/10/29 07:06:15;;;;;;;4.13;2.07;;;12.10;99.90;;;;;;5052957;28;20498;-66
2023/10/29 07:08:41;;;;;;;6.55;2.05;;;12.00;99.90;;;;;;5052518;28;20063;-66
2023/10/29 07:11:07;;;;;;;6.43;2.42;;;12.00;99.90;;;;;;5053790;28;20064;-65
2023/10/29 07:13:34;;;;;;;6.43;2.70;;;12.00;99.90;;;;;;5052631;28;20107;-65
2023/10/29 07:16:00;;;;;;;6.45;2.50;;;12.00;99.90;;;;;;5052609;28;20487;-64
2023/10/29 07:18:26;;;;;;;4.20;1.83;;;12.00;99.90;;;;;;5053644;28;20092;-64
2023/10/29 07:20:52;;;;;;;7.75;2.53;;;12.10;99.90;;;;;;5054061;28;20036;-64
2023/10/29 07:23:19;;;;;;;4.80;2.40;;;12.10;99.90;;;;;;5053943;28;20017;-62
2023/10/29 07:25:44;;;;;;;;;;;12.00;99.90;;;;;;5053332;28;20112;-63
2023/10/29 07:28:10;;;;;;;7.15;2.80;;;12.00;99.90;;;;;;5053087;28;20353;-63
2023/10/29 07:30:35;;;;;;;8.97;2.47;;;12.00;99.90;;;;;;5053990;28;20391;-64
2023/10/29 07:33:01;;;;;;;5.53;2.33;;;11.90;99.90;;;;;;5053307;28;20025;-63
2023/10/29 07:35:26;;;;;;;4.47;2.33;;;11.90;99.90;;;;;;5053792;28;20028;-63
2023/10/29 07:37:52;;;;;;;6.87;2.67;;;11.90;99.90;;;;;;5052153;28;20021;-63
2023/10/29 07:40:18;;;;;;;9.57;2.83;;;12.00;99.90;;;;;;5053571;28;20021;-63
2023/10/29 07:42:43;;;;;;;7.37;2.50;;;12.00;99.90;;;;;;5053464;28;20100;-64
2023/10/29 07:45:09;;;;;;;5.20;2.10;;;12.00;99.90;;;;;;5053313;28;20035;-62
2023/10/29 07:47:34;;;;;;;3.43;1.93;;;12.00;99.90;;;;;;5053856;28;20024;-63
2023/10/29 07:50:00;;;;;;;9.83;2.60;;;11.90;99.90;;;;;;5052051;28;20017;-63
2023/10/29 07:52:25;;;;;;;5.63;2.20;;;11.90;99.90;;;;;;5052018;28;20025;-63
2023/10/29 07:54:51;;;;;;;5.13;2.63;;;11.80;99.90;;;;;;5053219;28;20025;-64
2023/10/29 07:57:17;;;;;;;6.50;1.97;;;11.80;99.90;;;;;;5053732;28;20052;-63
2023/10/29 07:59:43;;;;;;;5.65;2.30;;;11.70;99.90;;;;;;5052954;28;20259;-62
2023/10/29 08:02:08;;;;;;;11.00;2.23;;;11.70;99.90;;;;;;5053229;28;20171;-63
2023/10/29 08:04:34;;;;;;;3.90;2.13;;;11.60;99.90;;;;;;5053100;28;20028;-62
2023/10/29 08:07:00;;;;;;;4.75;2.40;;;11.60;99.90;;;;;;5053366;28;20368;-61
2023/10/29 08:09:26;;;;;;;5.95;2.63;;;11.60;99.90;;;;;;5052417;28;20036;-63
2023/10/29 08:11:52;;;;;;;10.48;2.70;;;11.70;99.90;;;;;;5053077;28;20079;-62
2023/10/29 08:14:17;;;;;;;5.20;2.00;;;11.60;99.90;;;;;;5052642;28;20487;-62
2023/10/29 08:16:43;;;;;;;5.83;2.00;;;11.60;99.90;;;;;;5053152;28;20053;-63
2023/10/29 08:19:09;;;;;;;2.47;1.97;;;11.60;99.90;;;;;;5053085;28;20039;-62
2023/10/29 08:21:34;;;;;;;6.47;2.17;;;11.70;99.90;;;;;;5053044;28;20052;-64
2023/10/29 08:24:00;;;;;;;5.00;2.20;;;11.70;99.90;;;;;;5052056;28;20044;-63
2023/10/29 08:26:28;;;;;;;5.20;1.77;;;11.70;99.90;;;;;;5057033;28;20029;-64
2023/10/29 08:28:54;;;;;;;5.25;1.95;;;11.70;99.90;;;;;;5056560;28;20025;-64
2023/10/29 08:31:19;;;;;;;5.10;2.30;;;11.70;99.90;;;;;;5057462;28;20043;-63
2023/10/29 08:33:45;;;;;;;6.40;2.10;;;11.80;99.90;;;;;;5057003;28;20032;-63
2023/10/29 08:36:10;;;;;;;5.67;2.70;;;12.00;99.90;;;;;;5055398;28;20116;-62
2023/10/29 08:38:36;;;;;;;7.30;2.33;;;12.10;99.90;;;;;;5056668;28;20448;-62
2023/10/29 08:41:13;;;;;;;9.10;2.88;;;12.20;99.90;;;;;;5056652;28;20032;-65
2023/10/29 08:43:38;;;;;;;7.88;2.53;;;12.30;99.90;;;;;;5056720;28;20056;-65
2023/10/29 08:46:04;;;;;;;4.47;2.10;;;12.40;99.90;;;;;;5055328;28;20060;-65
2023/10/29 08:48:30;;;;;;;5.38;2.30;;;12.50;99.90;;;;;;5057188;28;20436;-65
2023/10/29 08:50:57;;;;;;;2.80;1.90;;;12.60;99.90;;;;;;5055785;28;20056;-66
2023/10/29 08:53:22;;;;;;;3.80;2.40;;;12.60;99.90;;;;;;5055522;28;20108;-68
2023/10/29 08:55:48;;;;;;;3.53;1.73;;;12.60;99.90;;;;;;5056948;28;20090;-67
2023/10/29 08:58:13;;;;;;;4.03;1.90;;;12.50;99.90;;;;;;5057704;28;20017;-66
2023/10/29 09:00:40;;;;;;;2.73;2.07;;;12.50;99.90;;;;;;5057296;28;20392;-66
2023/10/29 09:03:05;;;;;;;5.97;2.42;;;12.50;99.90;;;;;;5056595;28;20104;-66
2023/10/29 09:05:31;;;;;;;3.37;2.07;;;12.60;99.90;;;;;;5055811;28;20118;-66
2023/10/29 09:07:56;;;;;;;7.70;2.03;;;12.60;99.90;;;;;;5057357;28;20052;-67
2023/10/29 09:10:22;;;;;;;6.20;2.57;;;12.70;99.90;;;;;;5057228;28;20020;-67
2023/10/29 09:12:48;;;;;;;9.77;2.67;;;12.70;99.90;;;;;;5056592;28;20119;-68
2023/10/29 09:15:15;;;;;;;4.78;2.15;;;12.60;99.90;;;;;;5056645;28;20471;-66
2023/10/29 09:17:40;;;;;;;4.18;2.30;;;12.60;99.90;;;;;;5056588;28;20478;-67
2023/10/29 09:20:07;;;;;;;6.03;2.50;;;12.70;99.90;;;;;;5055103;28;20105;-67
2023/10/29 09:22:33;;;;;;;5.03;2.53;;;12.70;99.90;;;;;;5054780;28;20079;-67
2023/10/29 09:24:59;;;;;;;3.90;1.77;;;12.80;99.90;;;;;;5056048;28;20025;-68
2023/10/29 09:27:27;;;;;;;8.23;3.33;;;12.80;99.90;;;;;;5056124;28;20282;-67
2023/10/29 09:29:53;;;;;;;4.13;2.75;;;12.80;99.90;;;;;;5036114;28;20064;-67
2023/10/29 09:32:18;;;;;;;7.50;2.67;;;12.90;99.90;;;;;;5036270;28;20503;-70
2023/10/29 09:34:44;;;;;;;3.92;2.22;;;12.90;99.90;;;;;;5036830;28;20082;-70
2023/10/29 09:37:09;;;;;;;3.92;2.20;;;13.00;99.90;;;;;;5034782;28;20029;-70
2023/10/29 09:39:35;;;;;;;4.43;2.90;;;13.00;99.90;;;;;;5036176;28;20075;-71
2023/10/29 09:42:08;;;;;;;4.45;2.00;;;13.00;99.90;;;;;;5035296;28;20567;-72
2023/10/29 09:44:34;;;;;;;3.45;2.35;;;13.00;99.90;;;;;;5037038;28;20029;-74
2023/10/29 09:47:11;;;;;;;5.45;2.13;;;13.10;99.90;;;;;;5051968;28;20059;-70
2023/10/29 09:49:38;;;;;;;6.43;2.15;;;13.10;99.90;;;;;;5036154;28;20384;-69
2023/10/29 09:52:04;;;;;;;5.68;2.20;;;13.10;99.90;;;;;;5034365;28;20029;-67
2023/10/29 09:54:30;;;;;;;4.50;2.20;;;13.10;99.90;;;;;;5035237;28;20068;-65
2023/10/29 09:56:56;;;;;;;6.13;3.05;;;13.10;99.90;;;;;;5034105;28;20018;-64
2023/10/29 09:59:22;;;;;;;7.17;3.07;;;13.20;99.90;;;;;;5051205;28;20491;-65
2023/10/29 10:01:47;;;;;;;6.03;2.88;;;13.20;99.90;;;;;;5055405;28;20342;-65
2023/10/29 10:04:13;;;;;;;6.07;3.13;;;13.20;99.90;;;;;;5055700;28;20112;-65
2023/10/29 10:06:41;;;;;;;4.50;2.50;;;13.20;99.90;;;;;;5055147;28;20167;-65
2023/10/29 10:09:08;;;;;;;6.50;3.22;;;13.20;99.90;;;;;;5055080;28;20063;-66
2023/10/29 10:11:33;;;;;;;4.15;2.60;;;13.20;99.90;;;;;;5055990;28;20021;-66
2023/10/29 10:13:59;;;;;;;4.38;2.70;;;13.20;99.90;;;;;;5057788;28;20040;-66
2023/10/29 10:16:25;;;;;;;5.13;2.90;;;13.20;99.90;;;;;;5057371;28;20479;-66
2023/10/29 10:18:57;;;;;;;6.43;3.00;;;13.20;99.90;;;;;;5053643;28;20487;-65
2023/10/29 10:21:24;;;;;;;4.70;2.42;;;13.30;99.90;;;;;;5053833;28;20024;-71
2023/10/29 10:23:52;;;;;;;6.03;2.58;;;13.50;99.90;;;;;;5055424;28;20076;-66
2023/10/29 10:26:34;;;;;;;6.60;2.90;;;13.50;99.90;;;;;;5054885;28;20039;-64
2023/10/29 10:29:05;;;;;;;5.22;2.67;;;13.70;99.90;;;;;;5054351;28;20029;-65
2023/10/29 10:31:35;;;;;;;4.57;2.10;;;13.80;99.90;;;;;;5055449;28;20104;-67
2023/10/29 10:34:17;;;;;;;6.75;2.78;;;13.80;99.90;;;;;;5054517;28;20479;-66
2023/10/29 10:36:49;;;;;;;4.20;2.47;;;13.90;99.90;;;;;;5054461;28;20021;-69
2023/10/29 10:39:15;;;;;;;5.07;2.53;;;14.10;99.90;;;;;;5054449;28;20457;-65
2023/10/29 10:41:45;;;;;;;5.30;2.33;;;14.10;99.90;;;;;;5053423;28;20021;-64
2023/10/29 10:44:13;;;;;;;5.82;2.70;;;14.20;99.90;;;;;;5054482;28;20017;-65
2023/10/29 10:46:47;;;;;;;6.13;2.60;;;14.40;99.90;;;;;;5054527;28;20032;-65
2023/10/29 10:49:13;;;;;;;5.25;2.58;;;14.50;99.90;;;;;;5053937;28;20035;-66
2023/10/29 10:51:39;;;;;;;;;;;14.60;99.90;;;;;;5055452;28;20025;-66
2023/10/29 10:54:05;;;;;;;5.28;2.80;;;14.70;99.90;;;;;;5054876;28;20381;-67
2023/10/29 10:56:35;;;;;;;4.63;2.53;;;14.80;99.90;;;;;;5054919;28;20129;-69
2023/10/29 10:59:06;;;;;;;4.40;2.60;;;15.00;99.90;;;;;;5055059;28;20021;-67
2023/10/29 11:01:35;;;;;;;6.78;2.53;;;15.20;99.90;;;;;;5055180;28;20367;-67
2023/10/29 11:04:03;;;;;;;4.18;2.30;;;15.30;99.90;;;;;;5054342;28;20029;-67
2023/10/29 11:06:30;;;;;;;6.30;2.60;;;15.30;99.90;;;;;;5054361;28;20104;-66
2023/10/29 11:08:56;;;;;;;3.65;2.20;;;15.30;99.90;;;;;;5054280;28;20036;-67
2023/10/29 11:11:24;;;;;;;3.88;2.30;;;15.30;99.90;;;;;;5054803;28;20024;-66
2023/10/29 11:14:06;;;;;;;5.80;2.05;;;15.40;99.90;;;;;;5053533;28;20083;-67
2023/10/29 11:16:32;;;;;;;7.20;3.63;;;15.40;99.90;;;;;;5054050;28;20037;-68
2023/10/29 11:18:57;;;;;;;8.33;2.50;;;15.30;99.90;;;;;;5054055;28;20051;-68
2023/10/29 11:21:31;;;;;;;7.25;2.53;;;15.20;99.90;;;;;;5054571;28;20021;-67
2023/10/29 11:24:22;;;;;;;7.05;3.85;;;15.20;99.90;;;;;;5054515;28;20115;-68
2023/10/29 11:26:47;;;;;;;6.22;3.58;;;15.20;99.90;;;;;;5052675;28;20116;-66
2023/10/29 11:29:42;;;;;;;9.88;4.15;;;15.30;99.90;;;;;;5038487;28;20090;-66
2023/10/29 11:32:24;;;;;;;7.82;3.03;;;15.40;99.90;;;;;;5033636;28;20034;-66
2023/10/29 11:35:19;;;;;;;4.25;2.38;;;15.50;99.90;;;;;;5033374;28;20549;-66
2023/10/29 11:37:46;;;;;;;8.32;2.80;;;15.40;99.90;;;;;;5033337;28;20090;-66
2023/10/29 11:40:29;;;;;;;5.55;2.80;;;15.40;99.90;;;;;;5033650;28;20032;-66
2023/10/29 11:43:14;;;;;;;5.75;2.80;;;15.50;99.90;;;;;;5032286;28;20492;-66
2023/10/29 11:45:40;;;;;;;4.50;2.55;;;15.50;99.90;;;;;;5032233;28;20030;-66
2023/10/29 11:48:06;;;;;;;6.30;3.13;;;15.60;99.90;;;;;;5034046;28;20091;-66
2023/10/29 11:50:32;;;;;;;4.77;3.00;;;15.60;99.90;;;;;;5033422;28;20104;-66
2023/10/29 11:52:58;;;;;;;8.18;2.85;;;15.70;99.90;;;;;;5033459;28;20032;-65
2023/10/29 11:55:27;;;;;;;5.65;3.08;;;15.70;99.90;;;;;;5032054;28;20030;-65
2023/10/29 11:57:53;;;;;;;6.10;3.00;;;15.60;99.90;;;;;;5037224;28;20032;-66
2023/10/29 12:00:20;;;;;;;5.55;2.65;;;15.60;99.90;;;;;;5051119;28;20052;-65
2023/10/29 12:02:46;;;;;;;5.75;2.58;;;15.50;99.90;;;;;;5052973;28;20036;-64
2023/10/29 12:05:12;;;;;;;6.25;2.70;;;15.60;99.90;;;;;;5053234;28;20029;-65
2023/10/29 12:07:37;;;;;;;5.22;3.08;;;15.50;99.90;;;;;;5053005;28;20068;-65
2023/10/29 12:10:06;;;;;;;4.82;3.38;;;15.40;99.90;;;;;;5051393;28;20021;-65
2023/10/29 12:12:32;;;;;;;6.38;3.53;;;15.30;99.90;;;;;;5053220;28;20043;-64
2023/10/29 12:14:58;;;;;;;6.28;3.17;;;15.30;99.90;;;;;;5052961;28;20096;-67
2023/10/29 12:17:24;;;;;;;6.00;3.47;;;15.10;99.90;;;;;;5052042;28;20112;-69
2023/10/29 12:19:50;;;;;;;6.72;3.60;;;15.00;99.90;;;;;;5053536;28;20098;-65
2023/10/29 12:22:18;;;;;;;5.65;3.33;;;14.90;99.90;;;;;;5053464;28;20472;-66
2023/10/29 12:24:44;;;;;;;7.20;3.70;;;14.90;99.90;;;;;;5053383;28;20043;-67
2023/10/29 12:27:09;;;;;;;6.90;3.80;;;14.90;99.90;;;;;;5053625;28;20021;-68
2023/10/29 12:29:35;;;;;;;6.18;3.10;;;15.10;99.90;;;;;;5070765;28;20123;-68
2023/10/29 12:34:58;;;;;;;3.50;2.38;;;15.50;99.90;;;;;;5049936;28;20053;-71
2023/10/29 12:37:30;;;;;;;7.32;4.80;;;15.60;99.90;;;;;;5053034;28;20071;-68
2023/10/29 12:40:00;;;;;;;4.47;3.40;;;15.70;99.90;;;;;;5052789;28;20029;-67
2023/10/29 12:42:54;;;;;;;4.63;2.88;;;15.80;99.90;;;;;;5053189;28;20525;-71
2023/10/29 12:45:27;;;;;;;6.63;3.15;;;15.80;99.90;;;;;;5052556;28;20036;-66
2023/10/29 12:48:14;;;;;;;4.57;3.00;;;15.80;99.90;;;;;;5052582;28;20493;-66
2023/10/29 12:50:47;;;;;;;5.20;3.08;;;15.80;99.90;;;;;;5051288;28;20442;-68